Time;durP1;ratioP1;P1;durP2;ratioP2;P2;SDS_P1;SDS_P2;PMS_P1;PMS_P2;Temp;Humidity;BMP_temperature;BMP_pressure;BME280_temperature;BME280_humidity;BME280_pressure;Samples;Min_cycle;Max_cycle;Signal;HPM_P1;HPM_P2
2021/12/17 00:00:29;;;;;;;31.27;27.08;;;8.60;99.90;;;;;;4992771;28;20663;-71
2021/12/17 00:03:18;;;;;;;32.65;27.33;;;8.60;99.90;;;;;;4993962;28;20222;-71
2021/12/17 00:06:12;;;;;;;34.35;27.25;;;8.70;99.90;;;;;;4993379;28;20663;-72
2021/12/17 00:08:42;;;;;;;32.35;26.58;;;8.80;99.90;;;;;;4994007;28;20641;-72
2021/12/17 00:11:11;;;;;;;32.00;26.25;;;8.90;99.90;;;;;;4993535;28;20206;-72
2021/12/17 00:13:42;;;;;;;33.78;27.92;;;8.90;99.90;;;;;;4993756;28;20257;-72
2021/12/17 00:16:15;;;;;;;31.67;26.75;;;8.90;99.90;;;;;;4994037;28;20202;-72
2021/12/17 00:44:13;;;;;;;32.40;26.77;;;9.70;99.90;;;;;;4993435;28;20745;-72
2021/12/17 00:49:32;;;;;;;25.38;21.73;;;9.60;99.90;;;;;;4993240;28;20222;-72
2021/12/17 00:52:02;;;;;;;30.92;24.85;;;9.40;99.90;;;;;;4993327;28;20198;-72
2021/12/17 00:54:36;;;;;;;25.52;22.38;;;9.40;99.90;;;;;;4992888;28;20229;-71
2021/12/17 00:57:09;;;;;;;31.67;26.90;;;9.40;99.90;;;;;;4992622;28;20305;-68
2021/12/17 00:59:39;;;;;;;28.70;23.63;;;9.40;99.90;;;;;;4993069;28;20265;-71
2021/12/17 01:02:11;;;;;;;28.38;24.73;;;9.30;99.90;;;;;;4993015;28;20194;-69
2021/12/17 01:04:43;;;;;;;29.02;23.63;;;9.30;99.90;;;;;;4992799;28;20614;-72
2021/12/17 01:07:14;;;;;;;28.35;24.92;;;9.40;99.90;;;;;;4993157;28;20285;-71
2021/12/17 01:09:45;;;;;;;30.60;22.77;;;9.40;99.90;;;;;;4993023;28;20312;-70
2021/12/17 01:12:15;;;;;;;27.45;24.55;;;9.30;99.90;;;;;;4992846;28;20240;-70
2021/12/17 01:14:44;;;;;;;29.17;23.77;;;9.30;99.90;;;;;;4992807;28;20687;-70
2021/12/17 01:17:15;;;;;;;30.80;22.70;;;9.40;99.90;;;;;;4992989;28;20629;-71
2021/12/17 01:20:15;;;;;;;29.10;23.10;;;9.20;99.90;;;;;;4993022;28;20265;-71
2021/12/17 01:23:07;;;;;;;26.30;23.60;;;9.00;99.90;;;;;;4992609;28;20293;-71
2021/12/17 01:25:50;;;;;;;25.40;22.70;;;8.90;99.90;;;;;;4992382;28;20221;-71
2021/12/17 01:36:35;;;;;;;25.45;20.75;;;9.20;99.90;;;;;;4994226;28;20198;-70
2021/12/17 01:42:05;;;;;;;25.48;18.35;;;9.10;99.90;;;;;;4992691;28;20386;-73
2021/12/17 01:44:34;;;;;;;23.45;21.05;;;9.10;99.90;;;;;;4995006;28;20194;-72
2021/12/17 01:47:06;;;;;;;22.90;18.35;;;9.20;99.90;;;;;;4995758;28;20235;-73
2021/12/17 02:00:49;;;;;;;19.08;17.08;;;9.40;99.90;;;;;;4992381;28;20256;-72
2021/12/17 02:03:18;;;;;;;22.95;17.42;;;9.50;99.90;;;;;;4992090;28;20250;-73
2021/12/17 02:05:46;;;;;;;19.33;17.33;;;9.50;99.90;;;;;;4992304;28;20199;-70
2021/12/17 02:08:14;;;;;;;21.63;16.42;;;9.60;99.90;;;;;;4992124;28;20194;-72
2021/12/17 02:11:27;;;;;;;16.45;14.13;;;9.70;99.90;;;;;;4991183;28;20229;-71
2021/12/17 02:19:43;;;;;;;16.40;14.70;;;9.60;99.90;;;;;;4991864;28;20272;-71
2021/12/17 02:33:20;;;;;;;16.67;13.07;;;9.90;99.90;;;;;;5014781;22;20761;-65
2021/12/17 02:35:49;;;;;;;16.10;14.40;;;9.90;99.90;;;;;;5020594;28;20201;-64
2021/12/17 02:38:18;;;;;;;15.38;12.80;;;9.90;99.90;;;;;;5020141;28;20227;-65
2021/12/17 02:46:17;;;;;;;13.70;12.30;;;10.00;99.90;;;;;;5003439;28;20232;-64
2021/12/17 02:48:45;;;;;;;13.65;12.25;;;10.00;99.90;;;;;;5009512;28;20221;-64
2021/12/17 02:51:13;;;;;;;14.90;13.50;;;10.00;99.90;;;;;;5020387;28;20324;-65
2021/12/17 02:53:43;;;;;;;12.93;11.73;;;9.90;99.90;;;;;;5021007;28;20259;-65
2021/12/17 02:56:10;;;;;;;15.30;13.70;;;9.90;99.90;;;;;;5021592;28;20229;-65
2021/12/17 02:58:40;;;;;;;13.68;12.23;;;10.00;99.90;;;;;;5022055;28;20197;-65
2021/12/17 03:01:11;;;;;;;14.82;13.32;;;10.10;99.90;;;;;;5021661;28;20240;-65
2021/12/17 03:03:41;;;;;;;15.30;12.25;;;10.00;99.90;;;;;;5021284;28;20304;-65
2021/12/17 03:06:09;;;;;;;12.57;11.38;;;10.00;99.90;;;;;;5021629;28;20224;-65
2021/12/17 03:08:37;;;;;;;13.63;12.13;;;10.10;99.90;;;;;;5021479;28;20244;-65
2021/12/17 03:11:07;;;;;;;12.93;11.15;;;10.20;99.90;;;;;;5021363;28;20689;-62
2021/12/17 03:13:37;;;;;;;14.05;12.68;;;10.20;99.90;;;;;;5020732;28;20244;-62
2021/12/17 03:16:10;;;;;;;12.00;10.70;;;10.20;99.90;;;;;;5022031;28;20200;-62
2021/12/17 03:24:00;;;;;;;12.35;11.07;;;10.20;99.90;;;;;;5018501;28;20249;-62
2021/12/17 03:26:30;;;;;;;12.98;11.57;;;10.20;99.90;;;;;;5016160;28;20205;-62
2021/12/17 03:29:02;;;;;;;13.77;12.38;;;10.30;99.90;;;;;;5019800;28;20563;-62
2021/12/17 03:31:30;;;;;;;13.80;12.40;;;10.30;99.90;;;;;;5020382;28;20247;-62
2021/12/17 03:34:10;;;;;;;12.60;11.30;;;10.30;99.90;;;;;;5020761;28;20348;-64
2021/12/17 03:36:38;;;;;;;13.13;11.68;;;10.30;99.90;;;;;;5020394;28;20720;-64
2021/12/17 03:39:07;;;;;;;11.40;10.20;;;10.30;99.90;;;;;;5019001;28;20235;-65
2021/12/17 03:41:38;;;;;;;14.50;12.50;;;10.30;99.90;;;;;;5018051;28;20598;-65
2021/12/17 03:44:08;;;;;;;13.30;11.75;;;10.30;99.90;;;;;;5018723;28;20276;-65
2021/12/17 03:46:36;;;;;;;13.13;11.82;;;10.30;99.90;;;;;;5019701;28;20204;-65
2021/12/17 03:49:04;;;;;;;13.32;11.93;;;10.30;99.90;;;;;;5011214;28;20252;-65
2021/12/17 03:51:36;;;;;;;11.38;10.27;;;10.10;99.90;;;;;;5001762;28;20217;-65
2021/12/17 03:54:04;;;;;;;13.45;12.02;;;10.00;99.90;;;;;;5012287;28;20213;-64
2021/12/17 03:56:32;;;;;;;14.07;12.00;;;10.00;99.90;;;;;;5019661;28;20205;-65
2021/12/17 03:59:02;;;;;;;12.43;11.13;;;10.00;99.90;;;;;;5019843;28;20666;-65
2021/12/17 04:01:29;;;;;;;12.05;10.85;;;10.10;99.90;;;;;;5020040;28;20257;-64
2021/12/17 04:03:57;;;;;;;13.45;12.00;;;10.10;99.90;;;;;;5020127;28;20249;-64
2021/12/17 04:06:25;;;;;;;12.40;11.15;;;10.20;99.90;;;;;;5018413;28;20228;-65
2021/12/17 04:08:54;;;;;;;11.35;10.25;;;10.20;99.90;;;;;;5026672;28;20673;-64
2021/12/17 04:11:23;;;;;;;11.88;10.77;;;10.30;99.90;;;;;;5037299;28;20275;-62
2021/12/17 04:13:54;;;;;;;13.38;12.10;;;10.40;99.90;;;;;;5037586;28;20271;-62
2021/12/17 04:16:27;;;;;;;14.18;11.85;;;10.30;99.90;;;;;;5038486;28;20288;-62
2021/12/17 04:18:58;;;;;;;14.70;13.20;;;10.30;99.90;;;;;;5033209;28;20197;-62
2021/12/17 04:21:26;;;;;;;10.98;9.82;;;10.40;99.90;;;;;;5018945;28;20652;-62
2021/12/17 04:23:55;;;;;;;12.13;10.93;;;10.40;99.90;;;;;;5021037;28;20240;-62
2021/12/17 04:26:24;;;;;;;12.35;10.70;;;10.50;99.90;;;;;;5022236;28;20225;-63
2021/12/17 04:28:53;;;;;;;14.02;11.60;;;10.60;99.90;;;;;;5021777;28;20206;-62
2021/12/17 04:31:26;;;;;;;18.80;11.10;;;10.60;99.90;;;;;;5022356;28;20204;-62
2021/12/17 04:33:55;;;;;;;16.38;12.15;;;10.60;99.90;;;;;;5021590;28;20318;-62
2021/12/17 04:36:27;;;;;;;14.80;11.70;;;10.60;99.90;;;;;;5021767;28;20217;-63
2021/12/17 04:38:56;;;;;;;14.40;11.13;;;10.60;99.90;;;;;;5021417;28;20240;-62
2021/12/17 04:44:17;;;;;;;11.35;10.25;;;10.60;99.90;;;;;;5018645;28;20236;-62
2021/12/17 04:46:51;;;;;;;11.02;9.93;;;10.60;99.90;;;;;;5021319;28;20671;-62
2021/12/17 04:57:35;;;;;;;8.93;7.97;;;10.60;99.90;;;;;;5019408;28;20197;-65
2021/12/17 05:00:08;;;;;;;7.47;6.75;;;10.60;99.90;;;;;;5014688;28;20194;-65
2021/12/17 05:02:42;;;;;;;8.02;7.25;;;10.60;99.90;;;;;;5018316;28;20811;-64
2021/12/17 05:05:12;;;;;;;8.38;6.93;;;10.60;99.90;;;;;;5017004;28;20670;-64
2021/12/17 05:07:45;;;;;;;7.68;6.88;;;10.70;99.90;;;;;;5017127;28;20208;-64
2021/12/17 05:10:21;;;;;;;6.75;6.15;;;10.60;99.90;;;;;;5017510;28;20205;-62
2021/12/17 05:18:25;;;;;;;7.22;6.53;;;10.40;99.90;;;;;;5019813;28;20231;-62
2021/12/17 05:20:56;;;;;;;6.72;6.13;;;10.30;99.90;;;;;;5019121;28;20656;-62
2021/12/17 05:23:29;;;;;;;6.68;6.07;;;10.40;99.90;;;;;;5018761;28;20240;-62
2021/12/17 05:25:59;;;;;;;6.25;5.65;;;10.40;99.90;;;;;;5016037;28;20692;-61
2021/12/17 05:28:27;;;;;;;6.63;6.03;;;10.30;99.90;;;;;;5015874;28;20201;-62
2021/12/17 05:30:56;;;;;;;5.97;5.45;;;10.20;99.90;;;;;;5015297;28;20284;-65
2021/12/17 05:33:26;;;;;;;5.85;5.25;;;10.20;99.90;;;;;;5008615;28;20876;-63
2021/12/17 05:35:56;;;;;;;6.22;5.63;;;10.10;99.90;;;;;;5006608;28;20288;-63
2021/12/17 05:38:26;;;;;;;5.75;5.15;;;10.00;99.90;;;;;;5008173;28;20213;-63
2021/12/17 05:40:55;;;;;;;5.97;5.45;;;9.60;99.90;;;;;;5008096;28;20255;-63
2021/12/17 05:43:23;;;;;;;6.60;5.97;;;9.40;99.90;;;;;;5000918;28;20773;-62
2021/12/17 05:46:05;;;;;;;7.65;6.90;;;9.00;99.90;;;;;;5008161;28;20201;-62
2021/12/17 05:48:35;;;;;;;6.93;6.22;;;8.90;99.90;;;;;;5008724;28;20232;-62
2021/12/17 05:51:05;;;;;;;7.00;6.30;;;8.70;99.90;;;;;;5008374;28;20232;-63
2021/12/17 05:53:33;;;;;;;5.85;5.32;;;8.60;99.90;;;;;;5004764;28;20245;-63
2021/12/17 05:56:01;;;;;;;9.20;8.30;;;8.50;99.90;;;;;;5007382;28;20225;-63
2021/12/17 05:58:30;;;;;;;8.38;7.57;;;8.50;99.90;;;;;;5008194;28;20978;-63
2021/12/17 06:00:58;;;;;;;7.45;6.68;;;8.50;99.90;;;;;;5007686;28;20651;-63
2021/12/17 06:03:26;;;;;;;8.07;7.28;;;8.50;99.90;;;;;;5003056;28;20275;-63
2021/12/17 06:05:55;;;;;;;8.70;7.85;;;8.40;99.90;;;;;;5002757;28;20243;-62
2021/12/17 06:08:23;;;;;;;8.40;7.70;;;8.50;99.90;;;;;;5019217;28;20227;-63
2021/12/17 06:10:51;;;;;;;7.85;7.05;;;8.50;99.90;;;;;;5027792;28;20251;-63
2021/12/17 06:13:19;;;;;;;7.80;7.03;;;8.50;99.90;;;;;;5012101;28;20308;-63
2021/12/17 06:15:46;;;;;;;10.18;7.90;;;8.30;99.90;;;;;;5004342;28;20285;-63
2021/12/17 06:18:14;;;;;;;8.57;7.80;;;8.20;99.90;;;;;;5024667;28;20192;-65
2021/12/17 06:20:42;;;;;;;8.85;8.05;;;8.20;99.90;;;;;;5027621;28;21065;-62
2021/12/17 06:23:12;;;;;;;9.32;8.43;;;8.20;99.90;;;;;;5014746;28;20327;-63
2021/12/17 06:25:39;;;;;;;8.27;7.57;;;8.20;99.90;;;;;;5007610;28;20317;-62
2021/12/17 06:28:07;;;;;;;9.32;8.43;;;8.20;99.90;;;;;;5007535;28;20306;-62
2021/12/17 06:30:35;;;;;;;7.88;7.07;;;8.20;99.90;;;;;;5004153;28;20294;-63
2021/12/17 06:33:03;;;;;;;8.52;7.63;;;8.20;99.90;;;;;;5003670;28;20243;-65
2021/12/17 06:35:31;;;;;;;9.02;8.23;;;8.30;99.90;;;;;;5007564;28;20790;-65
2021/12/17 06:37:59;;;;;;;8.60;7.80;;;8.30;99.90;;;;;;5008046;28;20284;-65
2021/12/17 06:40:29;;;;;;;8.82;8.02;;;8.40;99.90;;;;;;5007715;28;20251;-65
2021/12/17 06:42:57;;;;;;;7.30;6.70;;;8.30;99.90;;;;;;5002061;28;20279;-66
2021/12/17 06:45:39;;;;;;;7.88;7.15;;;8.20;99.90;;;;;;5008216;28;20315;-65
2021/12/17 06:48:09;;;;;;;7.13;6.43;;;8.10;99.90;;;;;;5006806;28;20197;-65
2021/12/17 06:59:20;;;;;;;7.15;6.45;;;8.10;99.90;;;;;;4992342;28;20235;-65
2021/12/17 07:10:29;;;;;;;7.20;6.55;;;8.10;99.90;;;;;;5002518;28;20228;-65
2021/12/17 07:21:35;;;;;;;7.70;7.00;;;8.00;99.90;;;;;;5009853;28;20553;-65
2021/12/17 07:35:45;;;;;;;9.32;8.52;;;7.90;99.90;;;;;;5012209;28;20209;-65
2021/12/17 07:40:59;;;;;;;8.52;7.72;;;7.80;99.90;;;;;;5014251;28;20225;-66
2021/12/17 07:43:34;;;;;;;9.02;8.18;;;7.90;99.90;;;;;;5015173;28;20299;-66
2021/12/17 07:46:06;;;;;;;9.10;8.30;;;7.90;99.90;;;;;;5015463;28;20224;-65
2021/12/17 07:48:34;;;;;;;9.65;8.77;;;7.90;99.90;;;;;;5015706;28;20201;-65
2021/12/17 07:51:04;;;;;;;9.32;8.52;;;8.00;99.90;;;;;;5015039;28;20229;-65
2021/12/17 07:53:35;;;;;;;8.38;7.57;;;8.00;99.90;;;;;;5014680;28;20221;-66
2021/12/17 07:56:05;;;;;;;9.60;8.70;;;8.00;99.90;;;;;;5013156;28;20284;-65
2021/12/17 07:58:34;;;;;;;8.07;7.38;;;8.00;99.90;;;;;;5014885;28;20288;-65
2021/12/17 08:01:02;;;;;;;8.82;8.02;;;7.90;99.90;;;;;;5015439;28;20225;-65
2021/12/17 08:03:31;;;;;;;8.32;7.53;;;7.90;99.90;;;;;;5014391;28;20253;-66
2021/12/17 08:05:59;;;;;;;7.80;7.10;;;8.00;99.90;;;;;;5014623;28;20577;-65
2021/12/17 08:08:27;;;;;;;8.45;7.65;;;8.00;99.90;;;;;;5014122;28;20263;-65
2021/12/17 08:10:55;;;;;;;7.18;6.57;;;8.10;99.90;;;;;;5014788;28;20284;-65
2021/12/17 08:13:26;;;;;;;8.48;7.68;;;8.10;99.90;;;;;;5014185;28;20659;-65
2021/12/17 08:16:08;;;;;;;8.88;7.97;;;8.20;99.90;;;;;;5014292;28;20232;-65
2021/12/17 08:24:45;;;;;;;9.57;8.10;;;8.40;99.90;;;;;;5014323;28;20315;-65
2021/12/17 08:27:26;;;;;;;9.00;8.15;;;8.30;99.90;;;;;;5013582;28;20209;-66
2021/12/17 08:30:09;;;;;;;8.48;7.78;;;8.30;99.90;;;;;;5013703;28;20698;-65
2021/12/17 08:32:36;;;;;;;8.70;7.90;;;8.20;99.90;;;;;;5014233;28;20303;-65
2021/12/17 08:35:08;;;;;;;9.35;8.20;;;8.20;99.90;;;;;;5035712;22;20236;-66
2021/12/17 08:37:36;;;;;;;7.65;6.93;;;8.10;99.90;;;;;;5012853;28;20304;-65
2021/12/17 08:40:05;;;;;;;7.85;7.15;;;8.10;99.90;;;;;;5013047;28;20231;-65
2021/12/17 08:42:33;;;;;;;8.70;7.82;;;8.10;99.90;;;;;;5012500;28;20245;-65
2021/12/17 08:45:01;;;;;;;6.95;6.32;;;8.10;99.90;;;;;;5012906;28;20304;-67
2021/12/17 08:47:29;;;;;;;8.43;7.20;;;8.10;99.90;;;;;;5012975;28;20256;-65
2021/12/17 08:50:04;;;;;;;8.38;7.57;;;8.10;99.90;;;;;;5012684;28;20316;-65
2021/12/17 08:52:33;;;;;;;9.73;8.60;;;8.10;99.90;;;;;;5012954;28;20220;-66
2021/12/17 08:55:02;;;;;;;9.45;8.18;;;8.00;99.90;;;;;;5006854;28;20249;-65
2021/12/17 08:57:30;;;;;;;8.50;7.63;;;8.00;99.90;;;;;;4996692;28;20198;-65
2021/12/17 09:00:04;;;;;;;7.65;6.95;;;8.00;99.90;;;;;;4992882;28;20225;-65
2021/12/17 09:02:33;;;;;;;6.93;6.22;;;8.00;99.90;;;;;;4992921;28;20193;-65
2021/12/17 09:05:01;;;;;;;8.52;7.68;;;8.10;99.90;;;;;;4993283;28;20296;-66
2021/12/17 09:07:29;;;;;;;7.60;6.90;;;8.20;99.90;;;;;;4993061;28;20202;-65
2021/12/17 09:09:58;;;;;;;7.38;6.68;;;8.20;99.90;;;;;;4992763;28;20635;-66
2021/12/17 09:12:26;;;;;;;8.13;6.93;;;8.40;99.90;;;;;;5007444;28;20224;-65
2021/12/17 09:14:54;;;;;;;6.80;6.20;;;8.30;99.90;;;;;;5012325;28;20620;-65
2021/12/17 09:17:24;;;;;;;8.05;7.30;;;8.40;99.90;;;;;;5012496;28;20232;-66
2021/12/17 09:19:52;;;;;;;6.13;5.63;;;8.40;99.90;;;;;;5012391;28;20190;-66
2021/12/17 09:22:22;;;;;;;7.63;6.93;;;8.40;99.90;;;;;;5012206;28;20236;-66
2021/12/17 09:24:50;;;;;;;6.65;6.13;;;8.50;99.90;;;;;;5007881;28;20313;-65
2021/12/17 09:27:21;;;;;;;7.93;7.25;;;8.60;99.90;;;;;;4992673;28;20226;-66
2021/12/17 09:29:49;;;;;;;7.57;6.80;;;8.70;99.90;;;;;;4992459;28;20228;-66
2021/12/17 09:32:17;;;;;;;7.20;6.60;;;8.70;99.90;;;;;;4992297;28;20236;-65
2021/12/17 09:34:45;;;;;;;7.80;7.00;;;8.70;99.90;;;;;;4992267;28;20269;-66
2021/12/17 09:37:13;;;;;;;9.23;7.97;;;8.80;99.90;;;;;;4992408;28;20237;-67
2021/12/17 09:39:41;;;;;;;7.05;6.35;;;8.80;99.90;;;;;;4991657;28;20698;-66
2021/12/17 09:42:09;;;;;;;7.00;6.30;;;8.70;99.90;;;;;;4992238;28;20249;-65
2021/12/17 09:44:38;;;;;;;7.45;6.82;;;8.80;99.90;;;;;;4992145;28;20245;-65
2021/12/17 09:47:06;;;;;;;11.10;7.95;;;8.80;99.90;;;;;;4992394;28;20233;-66
2021/12/17 09:49:34;;;;;;;10.32;9.23;;;8.80;99.90;;;;;;4992160;28;20230;-66
2021/12/17 09:52:02;;;;;;;10.02;8.35;;;8.80;99.90;;;;;;4992215;28;20252;-65
2021/12/17 09:54:30;;;;;;;8.82;7.93;;;8.90;99.90;;;;;;4991933;28;20301;-66
2021/12/17 09:56:58;;;;;;;12.88;10.50;;;8.90;99.90;;;;;;4992308;28;20241;-66
2021/12/17 09:59:26;;;;;;;18.52;14.02;;;8.90;99.90;;;;;;4992064;28;20206;-65
2021/12/17 10:01:55;;;;;;;15.32;10.50;;;8.80;99.90;;;;;;4992127;28;20232;-66
2021/12/17 10:04:27;;;;;;;12.65;9.45;;;8.80;99.90;;;;;;4991990;28;20304;-65
2021/12/17 10:07:17;;;;;;;9.18;8.27;;;8.80;99.90;;;;;;4992076;28;20232;-65
2021/12/17 10:09:47;;;;;;;8.93;7.90;;;8.80;99.90;;;;;;4992088;28;20236;-66
2021/12/17 10:12:16;;;;;;;9.07;8.18;;;8.80;99.90;;;;;;4972661;28;20250;-68
2021/12/17 10:14:59;;;;;;;7.55;6.75;;;8.90;99.90;;;;;;4972499;28;20239;-65
2021/12/17 10:17:28;;;;;;;6.60;6.00;;;8.90;99.90;;;;;;4972597;28;20250;-65
2021/12/17 10:19:56;;;;;;;6.20;5.60;;;8.90;99.90;;;;;;4972600;28;20207;-65
2021/12/17 10:22:26;;;;;;;6.63;6.03;;;8.90;99.90;;;;;;4972436;28;20226;-66
2021/12/17 10:25:02;;;;;;;5.95;5.45;;;8.70;99.90;;;;;;4977742;28;20221;-66
2021/12/17 10:27:33;;;;;;;6.20;5.60;;;8.80;99.90;;;;;;4991807;28;20451;-66
2021/12/17 10:30:10;;;;;;;6.05;5.53;;;8.90;99.90;;;;;;4991526;28;20751;-66
2021/12/17 10:32:42;;;;;;;7.72;5.75;;;9.00;99.90;;;;;;4991592;28;20197;-65
2021/12/17 10:35:13;;;;;;;7.63;6.82;;;9.10;99.90;;;;;;4991683;28;20365;-65
2021/12/17 10:37:43;;;;;;;7.28;6.63;;;9.50;99.90;;;;;;4991915;28;20310;-65
2021/12/17 10:40:21;;;;;;;6.28;5.68;;;9.90;99.90;;;;;;4991326;28;20194;-66
2021/12/17 10:43:05;;;;;;;6.45;5.85;;;10.10;99.90;;;;;;5006541;28;20240;-65
2021/12/17 10:45:36;;;;;;;6.20;5.60;;;10.20;99.90;;;;;;5011452;28;20320;-65
2021/12/17 10:51:17;;;;;;;7.57;6.78;;;10.40;99.90;;;;;;5006428;28;20233;-65
2021/12/17 10:53:54;;;;;;;5.47;4.97;;;10.60;99.90;;;;;;5015087;28;20645;-65
2021/12/17 10:56:24;;;;;;;7.75;5.70;;;10.80;99.90;;;;;;4997468;28;20297;-67
2021/12/17 10:58:59;;;;;;;5.15;4.75;;;11.10;99.90;;;;;;4995155;28;20882;-66
2021/12/17 11:01:36;;;;;;;5.00;4.60;;;11.20;99.90;;;;;;4995168;28;20309;-66
2021/12/17 11:04:15;;;;;;;4.63;4.32;;;11.00;99.90;;;;;;4995371;28;20756;-65
2021/12/17 11:06:55;;;;;;;5.40;4.88;;;10.70;99.90;;;;;;4995532;28;20194;-66
2021/12/17 11:09:44;;;;;;;6.50;5.90;;;10.40;99.90;;;;;;4995131;28;20205;-66
2021/12/17 11:12:29;;;;;;;6.10;5.45;;;10.40;99.90;;;;;;4995277;28;20201;-66
2021/12/17 11:15:12;;;;;;;5.47;4.97;;;10.10;99.90;;;;;;4995157;28;20234;-65
2021/12/17 11:17:41;;;;;;;5.82;5.32;;;10.00;99.90;;;;;;4995118;28;20229;-66
2021/12/17 11:20:13;;;;;;;4.40;4.00;;;9.70;99.90;;;;;;4994947;28;20894;-65
2021/12/17 11:22:43;;;;;;;4.68;4.28;;;9.70;99.90;;;;;;4995028;28;20329;-66
2021/12/17 11:25:11;;;;;;;4.40;4.00;;;9.60;99.90;;;;;;4994811;28;20221;-66
2021/12/17 11:27:39;;;;;;;4.00;3.70;;;9.50;99.90;;;;;;4994898;28;20225;-65
2021/12/17 11:30:10;;;;;;;4.43;4.00;;;9.30;99.90;;;;;;4994671;28;20190;-66
2021/12/17 11:32:38;;;;;;;6.75;4.53;;;9.20;99.90;;;;;;4995590;28;20621;-65
2021/12/17 11:35:07;;;;;;;4.15;3.75;;;9.20;99.90;;;;;;5014088;28;20718;-65
2021/12/17 11:37:39;;;;;;;3.05;2.85;;;9.10;99.90;;;;;;5014338;28;20229;-66
2021/12/17 11:40:13;;;;;;;2.70;2.50;;;9.10;99.90;;;;;;5014340;28;20221;-65
2021/12/17 11:43:14;;;;;;;3.33;3.00;;;9.20;99.90;;;;;;5013199;28;20232;-66
2021/12/17 11:45:44;;;;;;;2.25;2.00;;;9.20;99.90;;;;;;5014234;28;20221;-66
2021/12/17 11:48:19;;;;;;;2.58;2.38;;;9.10;99.90;;;;;;5014472;28;20201;-66
2021/12/17 11:51:02;;;;;;;2.53;2.33;;;9.10;99.90;;;;;;5014073;28;20205;-65
2021/12/17 11:53:34;;;;;;;2.75;2.55;;;9.20;99.90;;;;;;5014265;28;20227;-65
2021/12/17 11:56:04;;;;;;;5.40;2.80;;;9.10;99.90;;;;;;4999811;28;20233;-65
2021/12/17 11:58:50;;;;;;;3.38;3.08;;;9.20;99.90;;;;;;4994523;28;20233;-65
2021/12/17 12:01:51;;;;;;;2.75;2.55;;;9.20;99.90;;;;;;4993054;28;20264;-67
2021/12/17 12:04:41;;;;;;;2.92;2.63;;;9.10;99.90;;;;;;4994080;28;20221;-65
2021/12/17 12:07:11;;;;;;;3.08;2.75;;;9.10;99.90;;;;;;4994388;28;20257;-65
2021/12/17 12:10:09;;;;;;;3.45;3.15;;;9.10;99.90;;;;;;4994042;28;20197;-66
2021/12/17 12:13:00;;;;;;;3.78;3.05;;;9.10;99.90;;;;;;4981720;28;20268;-65
2021/12/17 12:15:37;;;;;;;3.42;3.03;;;9.20;99.90;;;;;;4993883;28;20198;-65
2021/12/17 12:18:18;;;;;;;2.45;2.20;;;9.10;99.90;;;;;;4994365;28;20236;-65
2021/12/17 12:20:58;;;;;;;4.65;3.08;;;9.10;99.90;;;;;;4994213;28;20193;-67
2021/12/17 12:23:47;;;;;;;3.13;2.55;;;9.20;99.90;;;;;;4993943;28;20245;-66
2021/12/17 12:26:21;;;;;;;3.10;2.75;;;9.20;99.90;;;;;;4993731;28;20257;-66
2021/12/17 12:29:00;;;;;;;2.70;2.45;;;9.20;99.90;;;;;;4974478;28;20258;-66
2021/12/17 12:32:04;;;;;;;5.55;3.20;;;9.10;99.90;;;;;;4974215;28;20264;-66
2021/12/17 12:34:43;;;;;;;3.85;3.53;;;9.20;99.90;;;;;;4991974;28;20273;-66
2021/12/17 12:37:18;;;;;;;3.28;2.97;;;9.20;99.90;;;;;;4993755;28;20229;-66
2021/12/17 12:40:17;;;;;;;3.05;2.85;;;9.20;99.90;;;;;;4993862;28;20610;-66
2021/12/17 12:42:55;;;;;;;3.15;2.75;;;9.20;99.90;;;;;;4993608;28;20286;-66
2021/12/17 12:45:24;;;;;;;8.80;4.38;;;9.20;99.90;;;;;;4993359;28;20749;-66
2021/12/17 12:47:58;;;;;;;2.58;2.38;;;9.10;99.90;;;;;;4993723;28;20202;-66
2021/12/17 12:50:30;;;;;;;2.30;2.10;;;9.10;99.90;;;;;;4993314;28;20285;-66
2021/12/17 12:53:02;;;;;;;3.40;2.95;;;9.00;99.90;;;;;;4994381;28;20201;-67
2021/12/17 12:55:32;;;;;;;3.40;3.10;;;9.10;99.90;;;;;;4993150;28;20277;-66
2021/12/17 12:58:08;;;;;;;4.43;4.03;;;9.00;99.90;;;;;;4993198;28;20205;-66
2021/12/17 13:00:40;;;;;;;5.20;4.20;;;9.00;99.90;;;;;;4993256;28;20197;-66
2021/12/17 13:03:11;;;;;;;5.18;4.32;;;9.10;99.90;;;;;;4993019;28;20202;-66
2021/12/17 13:05:39;;;;;;;8.35;4.80;;;9.00;99.90;;;;;;4993061;28;20213;-66
2021/12/17 13:08:14;;;;;;;5.03;4.53;;;9.00;99.90;;;;;;4994083;28;20200;-66
2021/12/17 13:10:45;;;;;;;4.78;4.28;;;8.90;99.90;;;;;;4993059;28;20238;-66
2021/12/17 13:13:19;;;;;;;6.30;5.05;;;8.90;99.90;;;;;;4992595;28;20671;-66
2021/12/17 13:16:03;;;;;;;5.97;5.40;;;8.90;99.90;;;;;;4992916;28;20627;-66
2021/12/17 13:21:33;;;;;;;4.75;4.28;;;9.00;99.90;;;;;;4992779;28;20233;-66
2021/12/17 13:24:11;;;;;;;4.30;3.90;;;9.00;99.90;;;;;;4992832;28;20738;-66
2021/12/17 13:26:42;;;;;;;5.20;4.50;;;9.10;99.90;;;;;;4992910;28;20253;-66
2021/12/17 13:29:14;;;;;;;4.75;4.35;;;9.10;99.90;;;;;;4992601;28;20198;-66
2021/12/17 13:31:54;;;;;;;4.85;4.30;;;9.20;99.90;;;;;;4992435;28;20551;-66
2021/12/17 13:34:25;;;;;;;4.05;3.65;;;9.30;99.90;;;;;;4992282;28;20230;-67
2021/12/17 13:36:56;;;;;;;3.85;3.55;;;9.20;99.90;;;;;;4992664;28;20236;-66
2021/12/17 13:39:27;;;;;;;4.28;3.88;;;9.20;99.90;;;;;;5000990;28;20232;-66
2021/12/17 13:41:56;;;;;;;4.30;3.90;;;9.20;99.90;;;;;;5012009;28;20284;-66
2021/12/17 13:44:33;;;;;;;4.88;3.13;;;9.10;99.90;;;;;;5011994;28;20312;-66
2021/12/17 13:47:16;;;;;;;3.70;3.33;;;9.10;99.90;;;;;;5008271;28;20714;-66
2021/12/17 13:49:47;;;;;;;4.82;3.90;;;9.00;99.90;;;;;;4992368;28;20236;-66
2021/12/17 13:52:16;;;;;;;4.68;4.28;;;9.00;99.90;;;;;;4992272;28;20240;-67
2021/12/17 13:54:46;;;;;;;5.43;4.38;;;9.10;99.90;;;;;;4992220;28;20241;-66
2021/12/17 13:57:17;;;;;;;5.97;5.20;;;9.00;99.90;;;;;;4992306;28;20198;-66
2021/12/17 13:59:47;;;;;;;6.50;4.40;;;9.00;99.90;;;;;;4992099;28;20236;-66
2021/12/17 14:02:18;;;;;;;5.75;4.50;;;8.90;99.90;;;;;;4991943;28;20285;-66
2021/12/17 14:05:00;;;;;;;6.60;5.90;;;8.90;99.90;;;;;;4992360;28;20217;-67
2021/12/17 14:07:30;;;;;;;6.68;5.70;;;8.90;99.90;;;;;;4992052;28;20194;-67
2021/12/17 14:10:00;;;;;;;7.35;5.60;;;8.90;99.90;;;;;;4992059;28;20683;-67
2021/12/17 14:12:32;;;;;;;9.48;6.03;;;8.90;99.90;;;;;;4991832;28;20190;-66
2021/12/17 14:15:24;;;;;;;6.32;5.65;;;8.90;99.90;;;;;;4991876;28;20233;-67
2021/12/17 14:17:55;;;;;;;8.15;5.88;;;8.90;99.90;;;;;;4992151;28;20202;-66
2021/12/17 14:20:25;;;;;;;8.30;6.57;;;8.90;99.90;;;;;;4991934;28;20200;-66
2021/12/17 14:22:59;;;;;;;8.25;5.20;;;8.80;99.90;;;;;;4991864;28;20225;-66
2021/12/17 14:25:30;;;;;;;7.65;5.60;;;8.80;99.90;;;;;;5002935;28;20305;-66
2021/12/17 14:28:01;;;;;;;6.80;5.68;;;8.80;99.90;;;;;;4996346;28;20638;-66
2021/12/17 14:30:33;;;;;;;8.52;6.85;;;8.80;99.90;;;;;;4996022;28;20361;-66
2021/12/17 14:33:08;;;;;;;7.03;6.25;;;8.70;99.90;;;;;;4995809;28;20814;-66
2021/12/17 14:35:58;;;;;;;7.78;6.63;;;8.80;99.90;;;;;;4997112;28;20240;-66
2021/12/17 14:38:44;;;;;;;7.28;6.50;;;8.80;99.90;;;;;;4995951;28;20202;-66
2021/12/17 14:41:15;;;;;;;7.70;6.90;;;8.80;99.90;;;;;;4995755;28;20621;-66
2021/12/17 14:43:46;;;;;;;7.22;5.80;;;8.90;99.90;;;;;;4995467;28;20629;-66
2021/12/17 14:46:22;;;;;;;7.72;6.25;;;8.80;99.90;;;;;;4995412;28;20245;-66
2021/12/17 14:49:13;;;;;;;6.68;5.72;;;8.80;99.90;;;;;;4995917;28;20299;-66
2021/12/17 15:00:25;;;;;;;11.13;6.40;;;8.60;99.90;;;;;;4995618;28;20240;-66
2021/12/17 15:02:59;;;;;;;8.20;6.05;;;8.60;99.90;;;;;;4995241;28;20216;-67
2021/12/17 15:05:29;;;;;;;8.40;6.88;;;8.70;99.90;;;;;;4995698;28;20222;-66
2021/12/17 15:07:59;;;;;;;9.63;7.22;;;8.70;99.90;;;;;;4995578;28;20276;-66
2021/12/17 15:10:28;;;;;;;8.05;6.28;;;8.80;99.90;;;;;;4995554;28;20566;-66
2021/12/17 15:13:00;;;;;;;7.47;6.25;;;8.80;99.90;;;;;;4995288;28;20233;-66
2021/12/17 15:15:30;;;;;;;13.18;6.57;;;8.80;99.90;;;;;;4995303;28;20325;-66
2021/12/17 15:17:59;;;;;;;8.50;7.20;;;8.90;99.90;;;;;;4995436;28;20190;-66
2021/12/17 15:20:29;;;;;;;12.70;7.32;;;8.90;99.90;;;;;;4995124;28;20202;-66
2021/12/17 15:23:03;;;;;;;7.45;6.70;;;9.00;99.90;;;;;;4995329;28;20202;-67
2021/12/17 15:25:32;;;;;;;8.40;7.50;;;9.00;99.90;;;;;;4995263;28;20258;-65
2021/12/17 15:28:00;;;;;;;9.80;7.72;;;8.90;99.90;;;;;;4994849;28;20222;-66
2021/12/17 15:30:31;;;;;;;8.63;7.45;;;9.00;99.90;;;;;;4994823;28;20249;-66
2021/12/17 15:33:00;;;;;;;8.00;7.18;;;9.00;99.90;;;;;;4994781;28;20238;-66
2021/12/17 15:35:29;;;;;;;8.23;7.43;;;9.00;99.90;;;;;;4994760;28;20230;-66
2021/12/17 15:37:59;;;;;;;20.55;15.75;;;9.10;99.90;;;;;;4995267;28;20601;-66
2021/12/17 15:40:31;;;;;;;14.32;12.40;;;9.10;99.90;;;;;;4994575;28;20201;-66
2021/12/17 15:43:02;;;;;;;13.73;11.45;;;9.10;99.90;;;;;;4994549;28;20198;-66
2021/12/17 15:45:31;;;;;;;13.23;10.73;;;9.20;99.90;;;;;;4994704;28;20198;-66
2021/12/17 15:48:01;;;;;;;12.55;9.50;;;9.30;99.90;;;;;;4994637;28;20228;-65
2021/12/17 15:50:49;;;;;;;11.55;8.80;;;9.20;99.90;;;;;;4994057;28;20827;-65